Time;durP1;ratioP1;P1;durP2;ratioP2;P2;SDS_P1;SDS_P2;PMS_P1;PMS_P2;Temp;Humidity;BMP_temperature;BMP_pressure;BME280_temperature;BME280_humidity;BME280_pressure;Samples;Min_cycle;Max_cycle;Signal;HPM_P1;HPM_P2
2022/03/01 00:01:20;;;;;;;18.13;8.87;;;;;;;-1.73;67.23;97445.59;5103042;28;20028;-79
2022/03/01 00:03:46;;;;;;;20.97;8.83;;;;;;;-1.79;68.22;97448.41;5107522;28;20043;-78
2022/03/01 00:06:13;;;;;;;19.80;8.67;;;;;;;-1.75;67.87;97436.22;5092489;28;20008;-79
2022/03/01 00:08:38;;;;;;;18.00;8.77;;;;;;;-1.77;67.67;97426.00;5093010;28;20046;-80
2022/03/01 00:11:04;;;;;;;18.67;9.20;;;;;;;-1.78;68.14;97439.75;5091771;28;20449;-78
2022/03/01 00:13:30;;;;;;;18.10;9.30;;;;;;;-1.80;68.01;97433.00;5102319;28;20784;-79
2022/03/01 00:15:55;;;;;;;18.43;8.30;;;;;;;-1.86;68.53;97423.72;5082498;28;20083;-80
2022/03/01 00:18:21;;;;;;;19.70;10.17;;;;;;;-1.80;67.74;97417.53;5080064;28;20043;-79
2022/03/01 00:20:47;;;;;;;23.53;9.20;;;;;;;-1.77;67.96;97425.16;5080519;28;20075;-79
2022/03/01 00:23:12;;;;;;;18.00;9.13;;;;;;;-1.78;67.27;97423.44;5081448;28;20043;-80
2022/03/01 00:25:38;;;;;;;19.43;8.57;;;;;;;-1.84;67.35;97432.25;5080979;28;20093;-79
2022/03/01 00:28:04;;;;;;;19.07;10.03;;;;;;;-1.79;66.88;97430.34;5077576;28;20066;-80
2022/03/01 00:30:33;;;;;;;17.50;9.50;;;;;;;-1.90;67.58;97423.00;5073517;28;20430;-79
2022/03/01 00:32:59;;;;;;;18.57;8.47;;;;;;;-1.91;67.71;97428.22;5075407;28;20036;-79
2022/03/01 00:35:24;;;;;;;20.23;8.80;;;;;;;-1.93;67.50;97428.25;5080904;28;20457;-81
2022/03/01 00:37:53;;;;;;;18.07;8.93;;;;;;;-1.95;67.37;97434.34;5103667;28;20036;-79
2022/03/01 00:40:18;;;;;;;19.83;10.00;;;;;;;-1.94;67.36;97431.75;5102887;28;20275;-79
2022/03/01 00:42:45;;;;;;;18.77;9.03;;;;;;;-2.02;68.03;97433.72;5067648;28;20496;-79
2022/03/01 00:45:11;;;;;;;17.27;8.43;;;;;;;-1.97;66.93;97436.16;5076092;28;20040;-80
2022/03/01 00:47:37;;;;;;;19.10;9.43;;;;;;;-1.95;67.17;97437.75;5094590;28;20463;-79
2022/03/01 00:50:03;;;;;;;18.63;9.80;;;;;;;-2.00;67.20;97434.53;5086522;28;21021;-80
2022/03/01 00:52:30;;;;;;;17.00;8.80;;;;;;;-1.99;66.55;97432.78;5085194;28;20055;-78
2022/03/01 00:54:55;;;;;;;19.30;8.87;;;;;;;-2.03;67.04;97431.22;5095598;28;20476;-79
2022/03/01 00:57:21;;;;;;;17.73;9.00;;;;;;;-2.03;67.26;97428.63;5086474;28;20466;-78
2022/03/01 00:59:47;;;;;;;17.60;9.03;;;;;;;-2.11;67.90;97420.31;5084619;28;20043;-80
2022/03/01 01:02:12;;;;;;;16.93;8.63;;;;;;;-2.15;67.72;97425.59;5102337;28;20032;-79
2022/03/01 01:04:38;;;;;;;17.30;9.27;;;;;;;-2.19;68.23;97423.16;5072405;28;20021;-79
2022/03/01 01:07:04;;;;;;;20.07;9.13;;;;;;;-2.27;69.03;97413.09;5068383;28;20036;-79
2022/03/01 01:09:29;;;;;;;21.07;10.77;;;;;;;-2.26;68.91;97419.09;5099393;28;20118;-80
2022/03/01 01:11:56;;;;;;;17.20;9.70;;;;;;;-2.24;68.31;97417.31;5080812;28;20125;-79
2022/03/01 01:14:21;;;;;;;17.33;9.33;;;;;;;-2.26;68.69;97414.78;5081333;28;20032;-80
2022/03/01 01:16:47;;;;;;;16.57;9.00;;;;;;;-2.23;68.11;97411.28;5098190;28;20485;-78
2022/03/01 01:19:13;;;;;;;14.43;8.03;;;;;;;-2.33;69.06;97417.63;5088739;28;20051;-80
2022/03/01 01:24:22;;;;;;;18.83;9.00;;;;;;;-2.33;69.07;97413.31;5103058;28;20476;-79
2022/03/01 01:26:50;;;;;;;19.00;9.33;;;;;;;-2.37;68.76;97415.16;5076903;28;20463;-80
2022/03/01 01:29:16;;;;;;;16.13;8.70;;;;;;;-2.41;69.13;97411.00;5090065;28;20405;-79
2022/03/01 01:31:42;;;;;;;17.47;9.10;;;;;;;-2.45;69.73;97405.97;5093681;28;20446;-79
2022/03/01 01:34:08;;;;;;;18.10;9.10;;;;;;;-2.41;68.92;97412.75;5075322;28;20039;-79
2022/03/01 01:36:33;;;;;;;19.73;9.73;;;;;;;-2.51;69.88;97408.78;5092470;28;21006;-79
2022/03/01 01:39:00;;;;;;;17.13;8.20;;;;;;;-2.50;69.77;97410.47;5100803;28;20058;-79
2022/03/01 01:41:26;;;;;;;16.37;8.13;;;;;;;-2.51;69.84;97416.50;5085673;28;20461;-80
2022/03/01 01:43:52;;;;;;;18.83;9.00;;;;;;;-2.43;69.17;97412.78;5077277;28;20455;-80
2022/03/01 01:46:17;;;;;;;21.37;8.70;;;;;;;-2.46;69.02;97404.31;5067208;28;20069;-79
2022/03/01 01:48:43;;;;;;;20.10;9.60;;;;;;;-2.51;69.71;97401.06;5072897;28;20047;-78
2022/03/01 01:51:09;;;;;;;17.73;8.57;;;;;;;-2.53;69.55;97405.41;5098308;28;20052;-78
2022/03/01 01:53:35;;;;;;;18.20;9.03;;;;;;;-2.54;69.36;97393.44;5083524;28;20485;-78
2022/03/01 01:56:00;;;;;;;19.17;9.17;;;;;;;-2.55;69.45;97396.88;5080548;28;21907;-80
2022/03/01 01:58:26;;;;;;;18.07;8.40;;;;;;;-2.54;69.68;97393.44;5080402;28;20689;-79
2022/03/01 02:00:52;;;;;;;15.57;8.00;;;;;;;-2.53;69.52;97397.69;5074724;28;20043;-80
2022/03/01 02:03:18;;;;;;;18.83;9.30;;;;;;;-2.56;69.39;97387.47;5082505;28;20038;-79
2022/03/01 02:05:43;;;;;;;20.17;9.40;;;;;;;-2.56;68.94;97392.63;5082321;28;20067;-78
2022/03/01 02:08:09;;;;;;;22.80;8.50;;;;;;;-2.64;69.89;97393.72;5100857;28;20114;-78
2022/03/01 02:10:35;;;;;;;17.60;8.63;;;;;;;-2.68;70.18;97383.59;5075733;28;20043;-80
2022/03/01 02:13:00;;;;;;;19.70;9.90;;;;;;;-2.75;70.63;97385.50;5083645;28;20028;-79
2022/03/01 02:15:26;;;;;;;18.70;8.60;;;;;;;-2.79;70.56;97377.91;5101158;28;20049;-79
2022/03/01 02:17:53;;;;;;;18.43;9.50;;;;;;;-2.80;71.36;97379.66;5083602;28;20119;-79
2022/03/01 02:20:21;;;;;;;15.95;8.30;;;;;;;-2.80;71.22;97383.97;5091815;28;20501;-79
2022/03/01 02:22:53;;;;;;;17.10;9.13;;;;;;;-2.82;71.10;97378.00;5087657;28;20020;-79
2022/03/01 02:25:18;;;;;;;19.38;9.20;;;;;;;-2.85;71.42;97368.66;5103661;28;20165;-79
2022/03/01 02:27:44;;;;;;;19.67;8.90;;;;;;;-2.88;71.49;97374.75;5096299;28;20032;-79
2022/03/01 02:30:10;;;;;;;16.33;8.97;;;;;;;-2.88;71.13;97374.75;5083157;28;20036;-78
2022/03/01 02:32:39;;;;;;;17.40;8.53;;;;;;;-2.96;71.81;97371.56;5081517;28;20581;-79
2022/03/01 02:35:07;;;;;;;16.17;8.40;;;;;;;-2.93;71.41;97365.50;5077786;28;20466;-79
2022/03/01 02:37:34;;;;;;;23.33;9.37;;;;;;;-2.96;71.35;97360.44;5080038;28;20473;-78
2022/03/01 02:40:01;;;;;;;18.00;8.30;;;;;;;-2.95;71.17;97369.84;5080937;28;20537;-78
2022/03/01 02:42:30;;;;;;;18.13;8.02;;;;;;;-3.01;71.48;97365.75;5078508;28;20085;-79
2022/03/01 02:44:57;;;;;;;18.98;8.73;;;;;;;-3.01;71.19;97358.03;5071494;28;20040;-79
2022/03/01 02:47:23;;;;;;;17.10;8.48;;;;;;;-3.01;71.22;97367.47;5095921;28;20055;-80
2022/03/01 02:49:49;;;;;;;19.23;8.93;;;;;;;-3.03;71.06;97364.09;5088176;28;20039;-79
2022/03/01 02:52:15;;;;;;;18.10;8.20;;;;;;;-2.98;70.34;97354.53;5095375;28;20032;-80
2022/03/01 02:54:40;;;;;;;17.13;9.00;;;;;;;-3.03;71.43;97362.38;5072235;28;20028;-79
2022/03/01 02:57:06;;;;;;;17.67;8.33;;;;;;;-3.09;71.24;97358.25;5078867;28;20040;-79
2022/03/01 02:59:34;;;;;;;22.10;9.73;;;;;;;-3.10;71.20;97366.03;5079206;28;20047;-78
2022/03/01 03:02:00;;;;;;;16.70;7.90;;;;;;;-3.18;71.75;97360.28;5078255;28;20808;-79
2022/03/01 03:04:25;;;;;;;14.63;7.07;;;;;;;-3.17;71.42;97372.25;5077545;28;20438;-78
2022/03/01 03:06:52;;;;;;;16.30;8.60;;;;;;;-3.12;70.93;97365.22;5090003;28;20028;-81
2022/03/01 03:09:17;;;;;;;15.48;7.82;;;;;;;-3.11;71.01;97372.91;5078251;28;20076;-80
2022/03/01 03:11:43;;;;;;;16.63;8.37;;;;;;;-3.12;71.26;97371.25;5093556;28;20065;-79
2022/03/01 03:14:10;;;;;;;18.20;8.20;;;;;;;-3.19;71.62;97363.72;5087028;28;20031;-79
2022/03/01 03:16:36;;;;;;;15.43;7.38;;;;;;;-3.14;71.11;97367.84;5085038;28;20462;-79
2022/03/01 03:19:02;;;;;;;17.50;7.93;;;;;;;-3.23;71.42;97370.72;5100906;28;20084;-79
2022/03/01 03:21:28;;;;;;;18.37;8.83;;;;;;;-3.22;71.48;97372.41;5080375;28;20759;-79
2022/03/01 03:23:53;;;;;;;19.13;8.20;;;;;;;-3.27;71.68;97384.56;5086890;28;20056;-80
2022/03/01 03:26:22;;;;;;;16.40;7.87;;;;;;;-3.31;71.51;97382.97;5074089;28;20496;-77
2022/03/01 03:28:48;;;;;;;19.53;7.87;;;;;;;-3.25;70.66;97375.06;5098298;28;20089;-79
2022/03/01 03:31:18;;;;;;;20.40;9.27;;;;;;;-3.39;71.92;97382.34;5086971;28;20459;-78
2022/03/01 03:33:43;;;;;;;17.67;7.93;;;;;;;-3.37;71.68;97380.56;5076918;28;20032;-79
2022/03/01 03:36:09;;;;;;;15.97;7.60;;;;;;;-3.38;70.89;97378.91;5082788;28;20473;-79
2022/03/01 03:38:35;;;;;;;16.87;8.17;;;;;;;-3.35;70.81;97383.97;5081429;28;20028;-79
2022/03/01 03:41:01;;;;;;;16.27;7.60;;;;;;;-3.35;71.11;97382.22;5077769;28;20060;-79
2022/03/01 03:43:26;;;;;;;12.70;6.80;;;;;;;-3.37;70.37;97380.56;5094641;28;20016;-80
2022/03/01 03:45:52;;;;;;;16.17;7.23;;;;;;;-3.43;70.42;97381.59;5098730;28;20066;-79
2022/03/01 03:48:18;;;;;;;17.27;8.17;;;;;;;-3.47;70.63;97374.88;5081997;28;20103;-79
2022/03/01 03:50:44;;;;;;;16.93;8.13;;;;;;;-3.50;71.27;97372.38;5082138;28;20040;-79
2022/03/01 03:53:10;;;;;;;17.03;8.37;;;;;;;-3.54;71.35;97373.38;5094352;28;20075;-79
2022/03/01 03:55:36;;;;;;;15.77;7.80;;;;;;;-3.56;71.28;97378.53;5082830;28;20632;-79
2022/03/01 03:58:01;;;;;;;16.67;8.50;;;;;;;-3.47;71.02;97374.03;5077829;28;20508;-79
2022/03/01 04:00:27;;;;;;;16.80;7.73;;;;;;;-3.59;71.19;97376.09;5081265;28;20032;-79
2022/03/01 04:02:53;;;;;;;19.07;8.57;;;;;;;-3.53;71.04;97377.63;5081954;28;20039;-79
2022/03/01 04:05:19;;;;;;;15.73;8.10;;;;;;;-3.61;70.90;97375.28;5083068;28;20443;-79
2022/03/01 04:07:46;;;;;;;19.77;8.87;;;;;;;-3.68;71.66;97366.06;5073792;28;20118;-79
2022/03/01 04:10:13;;;;;;;16.13;8.67;;;;;;;-3.72;72.00;97367.03;5078841;28;20828;-79
2022/03/01 04:12:40;;;;;;;18.33;9.77;;;;;;;-3.77;72.39;97371.47;5081881;28;20474;-79
2022/03/01 04:15:07;;;;;;;17.80;9.07;;;;;;;-3.74;72.23;97373.09;5085795;28;20448;-77
2022/03/01 04:17:33;;;;;;;15.83;8.43;;;;;;;-3.83;72.85;97369.06;5083851;28;20477;-79
2022/03/01 04:19:58;;;;;;;19.10;9.20;;;;;;;-3.86;73.04;97364.00;5097558;28;20454;-79
2022/03/01 04:22:24;;;;;;;16.10;8.00;;;;;;;-3.89;73.16;97364.09;5092085;28;20043;-79
2022/03/01 04:24:51;;;;;;;16.70;8.20;;;;;;;-3.95;73.75;97361.72;5098614;28;20040;-78
2022/03/01 04:27:18;;;;;;;16.42;7.60;;;;;;;-3.99;73.80;97366.09;5098662;28;20024;-79
2022/03/01 04:29:44;;;;;;;16.15;7.63;;;;;;;-4.00;74.03;97356.69;5079597;28;20040;-79
2022/03/01 04:32:10;;;;;;;15.63;7.47;;;;;;;-4.05;74.55;97361.97;5096842;28;20036;-80
2022/03/01 04:34:37;;;;;;;17.10;7.73;;;;;;;-4.10;74.79;97356.09;5099373;28;20440;-79
2022/03/01 04:37:03;;;;;;;14.95;7.68;;;;;;;-4.08;75.34;97353.50;5099529;28;20060;-79
2022/03/01 04:39:29;;;;;;;15.57;8.07;;;;;;;-4.14;76.16;97354.50;5081461;28;20038;-81
2022/03/01 04:41:56;;;;;;;17.63;8.38;;;;;;;-4.22;77.47;97353.88;5072089;28;20081;-79
2022/03/01 04:44:22;;;;;;;13.68;7.63;;;;;;;-4.14;77.60;97353.66;5079323;28;20029;-78
2022/03/01 04:46:51;;;;;;;15.47;8.03;;;;;;;-4.18;77.68;97354.63;5092711;28;20129;-78
2022/03/01 04:49:16;;;;;;;18.63;8.68;;;;;;;-4.27;79.03;97360.84;5089017;28;20519;-78
2022/03/01 04:51:42;;;;;;;19.40;9.23;;;;;;;-4.33;79.34;97359.28;5080676;28;20033;-80
2022/03/01 04:54:08;;;;;;;16.17;8.77;;;;;;;-4.36;79.94;97359.38;5084802;28;20054;-78
2022/03/01 04:56:34;;;;;;;17.97;8.37;;;;;;;-4.42;80.58;97358.69;5069240;28;20029;-82
2022/03/01 04:58:59;;;;;;;16.60;8.03;;;;;;;-4.51;81.12;97363.19;5081687;28;20039;-77
2022/03/01 05:01:25;;;;;;;15.37;7.93;;;;;;;-4.58;82.51;97351.38;5093161;28;20021;-78
2022/03/01 05:03:51;;;;;;;17.87;8.97;;;;;;;-4.64;83.39;97353.25;5070520;28;20035;-78
2022/03/01 05:06:17;;;;;;;16.23;8.33;;;;;;;-4.62;83.62;97349.78;5067937;28;20385;-80
2022/03/01 05:08:42;;;;;;;17.07;8.63;;;;;;;-4.63;83.56;97342.09;5086314;28;20532;-79
2022/03/01 05:11:08;;;;;;;16.30;8.27;;;;;;;-4.63;83.73;97350.66;5099050;28;20069;-79
2022/03/01 05:13:35;;;;;;;18.70;8.20;;;;;;;-4.68;83.99;97351.66;5077045;28;20140;-78
2022/03/01 05:16:00;;;;;;;16.70;8.30;;;;;;;-4.70;84.28;97346.56;5078118;28;20392;-78
2022/03/01 05:18:26;;;;;;;20.10;9.03;;;;;;;-4.75;84.29;97353.53;5077647;28;20020;-78
2022/03/01 05:20:52;;;;;;;20.07;9.07;;;;;;;-4.79;84.62;97351.94;5080358;28;20036;-78
2022/03/01 05:23:17;;;;;;;16.33;8.63;;;;;;;-4.80;84.77;97350.22;5081340;28;20035;-80
2022/03/01 05:25:43;;;;;;;17.70;8.73;;;;;;;-4.80;84.42;97350.22;5098057;28;20127;-80
2022/03/01 05:28:09;;;;;;;16.27;9.63;;;;;;;-4.82;85.11;97346.88;5086067;28;20032;-79
2022/03/01 05:30:35;;;;;;;17.33;8.20;;;;;;;-4.90;85.47;97353.91;5073267;28;20622;-78
2022/03/01 05:33:01;;;;;;;25.37;12.43;;;;;;;-4.92;85.74;97353.13;5069175;28;20024;-78
2022/03/01 05:35:29;;;;;;;23.43;11.90;;;;;;;-4.93;85.53;97354.81;5067533;28;20041;-78
2022/03/01 05:37:56;;;;;;;19.83;10.45;;;;;;;-5.01;85.84;97352.44;5059107;28;20123;-78
2022/03/01 05:40:25;;;;;;;19.80;10.48;;;;;;;-5.05;86.29;97355.97;5078252;28;20067;-78
2022/03/01 05:42:51;;;;;;;26.20;13.60;;;;;;;-5.02;85.30;97358.47;5095318;28;20038;-78
2022/03/01 05:45:17;;;;;;;32.33;14.40;;;;;;;-5.06;85.92;97344.03;5077758;28;20224;-78
2022/03/01 05:47:44;;;;;;;20.33;10.45;;;;;;;-5.13;85.96;97347.63;5075412;28;20486;-78
2022/03/01 05:50:11;;;;;;;15.82;8.63;;;;;;;-5.09;86.18;97359.50;5076959;28;20101;-77
2022/03/01 05:52:39;;;;;;;19.95;9.45;;;;;;;-4.57;95.28;97353.06;5092885;28;20028;-79
2022/03/01 05:55:07;;;;;;;18.30;10.60;;;;;;;-4.94;88.55;97352.31;5073745;28;20508;-78
2022/03/01 05:57:33;;;;;;;17.35;8.70;;;;;;;-4.95;87.10;97354.03;5073486;28;20040;-78
2022/03/01 06:00:00;;;;;;;15.07;7.53;;;;;;;-4.86;84.97;97350.38;5092907;28;20688;-79
2022/03/01 06:02:27;;;;;;;14.05;7.60;;;;;;;-4.89;85.32;97355.63;5071196;28;20036;-79
2022/03/01 06:04:54;;;;;;;14.10;7.32;;;;;;;-4.84;84.04;97364.03;5074501;28;20028;-78
2022/03/01 06:07:20;;;;;;;16.88;7.60;;;;;;;-4.87;83.97;97366.66;5077505;28;20062;-79
2022/03/01 06:09:46;;;;;;;16.23;7.47;;;;;;;-4.83;83.58;97371.72;5075831;28;20040;-78
2022/03/01 06:12:12;;;;;;;19.93;10.33;;;;;;;-4.88;84.13;97370.13;5064559;28;20031;-77
2022/03/01 06:14:41;;;;;;;22.53;10.93;;;;;;;-4.82;83.98;97369.97;5070894;28;20537;-78
2022/03/01 06:17:07;;;;;;;15.27;9.05;;;;;;;-4.63;84.15;97362.66;5067010;28;20087;-78
2022/03/01 06:19:37;;;;;;;17.27;8.57;;;;;;;-4.37;82.69;97370.50;5074067;28;20040;-78
2022/03/01 06:22:04;;;;;;;15.60;7.15;;;;;;;-4.25;80.41;97360.81;5077589;28;20354;-79
2022/03/01 06:24:30;;;;;;;15.18;8.27;;;;;;;-4.14;80.84;97353.66;5077612;28;20035;-79
2022/03/01 06:26:56;;;;;;;14.03;7.03;;;;;;;-4.08;80.10;97351.75;5074525;28;20036;-78
2022/03/01 06:29:21;;;;;;;16.53;8.07;;;;;;;-3.68;78.38;97355.78;5085248;28;20035;-78
2022/03/01 06:31:49;;;;;;;15.23;7.70;;;;;;;-3.15;75.96;97358.47;5065316;28;20028;-80
2022/03/01 06:34:15;;;;;;;14.88;8.10;;;;;;;-3.36;74.46;97356.53;5069864;28;20126;-80
2022/03/01 06:36:41;;;;;;;16.77;7.50;;;;;;;-3.20;74.62;97352.59;5095386;28;20095;-80
2022/03/01 06:39:07;;;;;;;14.63;7.60;;;;;;;-2.74;72.50;97358.88;5068369;28;20028;-80
2022/03/01 06:41:33;;;;;;;14.10;7.83;;;;;;;-2.39;70.71;97364.56;5068182;28;20032;-80
2022/03/01 06:44:00;;;;;;;15.27;7.97;;;;;;;-2.25;70.11;97367.50;5075330;28;20060;-81
2022/03/01 06:46:26;;;;;;;16.50;7.77;;;;;;;-2.51;70.87;97363.25;5074712;28;21061;-80
2022/03/01 06:48:52;;;;;;;16.73;7.43;;;;;;;-2.43;71.11;97375.88;5075159;28;20495;-79
2022/03/01 06:51:18;;;;;;;16.60;7.77;;;;;;;-1.97;68.81;97382.88;5079986;28;20028;-82
2022/03/01 06:53:44;;;;;;;14.68;7.85;;;;;;;-2.11;69.52;97386.81;5076863;28;20102;-80
2022/03/01 06:56:10;;;;;;;21.00;8.10;;;;;;;-1.88;67.79;97389.41;5067620;28;20032;-80
2022/03/01 06:58:36;;;;;;;16.03;6.87;;;;;;;-1.63;67.00;97386.81;5072812;28;20084;-79
2022/03/01 07:01:03;;;;;;;14.10;7.20;;;;;;;-1.94;67.73;97390.50;5079349;28;20473;-79
2022/03/01 07:03:28;;;;;;;18.50;8.33;;;;;;;-1.59;66.21;97395.25;5093339;28;20103;-77
2022/03/01 07:05:54;;;;;;;12.73;6.43;;;;;;;-0.66;63.92;97389.09;5067554;28;20497;-78
2022/03/01 07:08:22;;;;;;;17.47;8.00;;;;;;;-0.84;63.12;97394.97;5074921;28;20036;-78
2022/03/01 07:10:49;;;;;;;16.97;8.97;;;;;;;-0.81;62.97;97385.34;5087282;28;20588;-78
2022/03/01 07:13:15;;;;;;;13.27;6.97;;;;;;;-0.92;63.46;97389.28;5080746;28;20462;-78
2022/03/01 07:15:41;;;;;;;12.83;7.30;;;;;;;-0.11;59.69;97386.78;5097792;28;20470;-79
2022/03/01 07:18:07;;;;;;;12.37;5.80;;;;;;;-0.44;61.43;97389.03;5082817;28;20058;-79
2022/03/01 07:20:34;;;;;;;16.73;7.07;;;;;;;0.10;60.19;97384.19;5079897;28;20473;-79
2022/03/01 07:23:00;;;;;;;15.23;6.77;;;;;;;0.11;58.32;97386.72;5079261;28;20040;-79
2022/03/01 07:25:26;;;;;;;15.73;7.07;;;;;;;0.59;57.68;97387.19;5082727;28;20441;-79
2022/03/01 07:27:54;;;;;;;14.97;6.60;;;;;;;0.57;55.52;97389.88;5079015;28;20462;-78
2022/03/01 07:30:21;;;;;;;12.13;6.00;;;;;;;0.59;55.88;97387.19;5079437;28;20379;-79
2022/03/01 07:32:48;;;;;;;17.10;8.83;;;;;;;0.12;57.51;97388.38;5079162;28;20457;-79
2022/03/01 07:35:15;;;;;;;16.23;7.43;;;;;;;0.97;56.90;97382.81;5079059;28;20519;-80
2022/03/01 07:37:41;;;;;;;13.37;6.53;;;;;;;0.73;56.22;97391.72;5097456;28;20470;-79
2022/03/01 07:40:12;;;;;;;12.10;6.60;;;;;;;0.55;56.69;97396.84;5067279;28;20455;-80
2022/03/01 07:42:38;;;;;;;13.23;7.07;;;;;;;0.97;54.35;97398.34;5070010;28;20120;-80
2022/03/01 07:45:05;;;;;;;11.03;6.63;;;;;;;2.17;52.98;97387.31;5101736;28;20470;-80
2022/03/01 07:47:31;;;;;;;15.77;7.07;;;;;;;2.08;51.41;97394.66;5088619;28;20467;-80
2022/03/01 07:49:57;;;;;;;16.33;8.27;;;;;;;3.06;49.61;97389.44;5092484;28;20469;-80
2022/03/01 07:52:23;;;;;;;16.43;9.43;;;;;;;3.30;48.88;97391.63;5072388;28;20032;-80
2022/03/01 07:54:49;;;;;;;15.60;7.57;;;;;;;2.71;48.87;97395.72;5072302;28;20742;-80
2022/03/01 07:57:16;;;;;;;14.73;7.50;;;;;;;1.89;52.07;97394.75;5071081;28;20040;-79
2022/03/01 07:59:42;;;;;;;14.70;7.00;;;;;;;3.21;48.86;97392.13;5092222;28;20028;-80
2022/03/01 08:02:08;;;;;;;11.40;6.47;;;;;;;4.12;46.79;97390.34;5059321;28;20983;-79
2022/03/01 08:04:34;;;;;;;15.13;7.10;;;;;;;3.10;48.11;97384.09;5069734;28;20233;-80
2022/03/01 08:07:00;;;;;;;11.97;6.57;;;;;;;2.15;50.48;97387.41;5075583;28;20434;-80
2022/03/01 08:09:27;;;;;;;14.30;7.33;;;;;;;1.95;51.58;97385.00;5080025;28;20032;-80
2022/03/01 08:11:56;;;;;;;14.17;7.97;;;;;;;2.07;50.20;97382.59;5108193;28;20438;-79
2022/03/01 08:14:21;;;;;;;17.50;8.57;;;;;;;2.21;50.58;97381.03;5082205;28;20456;-80
2022/03/01 08:16:47;;;;;;;15.00;8.03;;;;;;;2.85;49.99;97377.66;5075917;28;20882;-80
2022/03/01 08:19:13;;;;;;;14.93;7.83;;;;;;;2.59;50.59;97379.03;5059646;28;20028;-80
2022/03/01 08:21:40;;;;;;;14.83;6.93;;;;;;;2.58;49.66;97382.53;5067960;28;20040;-80
2022/03/01 08:24:06;;;;;;;15.37;7.50;;;;;;;3.44;48.94;97372.63;5092898;28;20033;-78
2022/03/01 08:26:32;;;;;;;13.93;7.00;;;;;;;3.40;49.79;97371.97;5081839;28;20553;-80
2022/03/01 08:28:58;;;;;;;11.37;6.27;;;;;;;3.14;49.43;97363.03;5081438;28;20069;-82
2022/03/01 08:31:23;;;;;;;13.37;7.37;;;;;;;3.23;49.28;97364.28;5074342;28;20120;-81
2022/03/01 08:33:49;;;;;;;11.10;6.17;;;;;;;3.15;48.95;97361.25;5061529;28;20509;-77
2022/03/01 08:36:15;;;;;;;14.27;6.93;;;;;;;3.58;48.02;97364.03;5079526;28;20033;-77
2022/03/01 08:38:41;;;;;;;12.70;7.13;;;;;;;3.41;48.25;97362.41;5087897;28;20024;-80
2022/03/01 08:41:07;;;;;;;13.13;7.70;;;;;;;4.49;47.66;97361.19;5078951;28;20032;-80
2022/03/01 08:43:33;;;;;;;11.30;6.27;;;;;;;5.66;43.29;97345.94;5102400;28;20528;-78
2022/03/01 08:45:59;;;;;;;17.07;6.93;;;;;;;6.01;43.32;97346.22;5092409;28;20519;-78
2022/03/01 08:48:25;;;;;;;11.83;6.37;;;;;;;6.43;42.62;97352.06;5063842;28;20060;-79
2022/03/01 08:50:51;;;;;;;11.60;6.43;;;;;;;6.76;41.30;97343.66;5081274;28;20131;-78
2022/03/01 08:53:19;;;;;;;10.57;5.67;;;;;;;5.36;43.03;97348.78;5082145;28;20058;-79
2022/03/01 08:55:46;;;;;;;11.23;5.87;;;;;;;6.75;41.76;97341.97;5095421;28;20067;-78
2022/03/01 08:58:13;;;;;;;11.67;6.00;;;;;;;6.65;40.23;97335.72;5084346;28;20036;-79
2022/03/01 09:00:39;;;;;;;14.57;6.57;;;;;;;6.59;40.63;97338.78;5083196;28;20401;-79
2022/03/01 09:03:05;;;;;;;12.97;6.57;;;;;;;7.97;38.41;97336.56;5079941;28;20035;-78
2022/03/01 09:05:32;;;;;;;12.27;6.93;;;;;;;7.83;37.98;97334.16;5078278;28;20040;-78
2022/03/01 09:08:01;;;;;;;11.57;6.03;;;;;;;7.52;38.34;97331.22;5076647;28;20691;-79
2022/03/01 09:10:27;;;;;;;12.23;6.53;;;;;;;6.42;40.30;97333.88;5078295;28;20031;-79
2022/03/01 09:12:54;;;;;;;12.73;6.20;;;;;;;6.40;39.60;97330.53;5088553;28;20032;-78
2022/03/01 09:15:21;;;;;;;11.30;6.60;;;;;;;7.56;38.82;97322.19;5080966;28;20112;-79
2022/03/01 09:17:47;;;;;;;10.57;6.30;;;;;;;6.61;38.46;97314.22;5096121;28;20038;-79
2022/03/01 09:20:14;;;;;;;10.80;5.83;;;;;;;7.35;37.81;97313.31;5072168;28;20036;-78
2022/03/01 09:22:41;;;;;;;10.37;6.13;;;;;;;7.74;37.40;97304.25;5082999;28;20493;-79
2022/03/01 09:25:07;;;;;;;14.13;6.80;;;;;;;6.81;38.21;97304.94;5076708;28;20410;-79
2022/03/01 09:27:36;;;;;;;12.40;6.60;;;;;;;8.47;37.16;97301.28;5094370;28;20087;-79
2022/03/01 09:30:04;;;;;;;11.67;6.17;;;;;;;8.24;35.09;97302.19;5082128;28;20039;-78
2022/03/01 09:32:30;;;;;;;9.20;5.27;;;;;;;7.21;36.51;97301.22;5087556;28;20032;-78
2022/03/01 09:34:57;;;;;;;11.10;6.03;;;;;;;6.06;37.70;97309.34;5072066;28;20042;-78
2022/03/01 09:37:23;;;;;;;10.20;5.87;;;;;;;5.77;38.39;97306.06;5092845;28;20040;-78
2022/03/01 09:39:48;;;;;;;11.33;5.80;;;;;;;5.38;40.20;97306.00;5085671;28;20038;-79
2022/03/01 09:42:14;;;;;;;11.10;5.97;;;;;;;5.67;39.65;97301.47;5078507;28;20025;-79
2022/03/01 09:44:42;;;;;;;11.53;6.30;;;;;;;6.32;38.07;97284.06;5077065;28;20549;-79
2022/03/01 09:47:08;;;;;;;11.13;5.77;;;;;;;6.67;37.20;97292.00;5097057;28;20023;-80
2022/03/01 09:49:35;;;;;;;11.60;6.00;;;;;;;6.80;36.02;97286.75;5079995;28;20031;-79
2022/03/01 09:52:02;;;;;;;9.83;5.60;;;;;;;6.24;37.26;97289.81;5084176;28;20033;-77
2022/03/01 09:54:29;;;;;;;10.77;5.87;;;;;;;5.71;36.72;97289.06;5091485;28;20036;-80
2022/03/01 09:56:56;;;;;;;9.50;5.23;;;;;;;6.15;36.17;97285.22;5081355;28;20051;-80
2022/03/01 09:59:24;;;;;;;11.90;5.90;;;;;;;5.84;36.80;97282.06;5080703;28;20031;-80
2022/03/01 10:01:51;;;;;;;11.13;5.83;;;;;;;5.82;35.54;97283.94;5095852;28;20062;-80
2022/03/01 10:04:18;;;;;;;9.80;5.47;;;;;;;6.26;35.64;97269.63;5072454;28;20034;-81
2022/03/01 10:06:46;;;;;;;10.77;4.87;;;;;;;5.38;37.02;97273.88;5079231;28;20175;-79
2022/03/01 10:09:18;;;;;;;10.43;5.30;;;;;;;5.33;37.45;97268.97;5075971;28;20055;-78
2022/03/01 10:11:44;;;;;;;12.53;5.47;;;;;;;5.70;37.45;97261.31;5077242;28;20036;-80
2022/03/01 10:14:11;;;;;;;10.97;5.63;;;;;;;5.68;36.94;97261.38;5094267;28;20106;-79
2022/03/01 10:16:41;;;;;;;10.37;5.20;;;;;;;6.28;35.36;97261.69;5090449;28;20028;-78
2022/03/01 10:19:19;;;;;;;10.93;5.57;;;;;;;6.48;35.67;97255.06;5074443;28;20101;-78
2022/03/01 10:21:56;;;;;;;10.87;5.77;;;;;;;6.09;35.49;97257.75;5090263;28;20115;-79
2022/03/01 10:24:23;;;;;;;10.53;5.80;;;;;;;6.97;34.67;97251.53;5092978;28;20024;-80
2022/03/01 10:26:56;;;;;;;11.27;6.30;;;;;;;6.19;34.45;97249.28;5093117;28;20040;-79
2022/03/01 10:29:27;;;;;;;16.15;6.38;;;;;;;5.76;34.50;97244.38;5082634;28;20036;-78
2022/03/01 10:32:11;;;;;;;10.07;5.47;;;;;;;6.37;34.71;97238.38;5104959;28;20050;-79
2022/03/01 10:34:36;;;;;;;9.33;5.33;;;;;;;6.58;33.70;97243.84;5087333;28;20490;-78
2022/03/01 10:37:02;;;;;;;9.67;5.20;;;;;;;6.47;34.29;97242.94;5082510;28;20044;-77
2022/03/01 10:39:31;;;;;;;9.10;5.30;;;;;;;7.49;33.54;97238.06;5074258;28;20063;-78
2022/03/01 10:41:57;;;;;;;8.43;4.70;;;;;;;6.74;33.32;97235.75;5075997;28;20044;-79
2022/03/01 10:44:27;;;;;;;10.70;4.30;;;;;;;6.48;32.77;97231.56;5077044;28;20032;-80
2022/03/01 10:46:59;;;;;;;9.30;4.97;;;;;;;6.21;33.80;97226.50;5084065;28;20020;-79
2022/03/01 10:49:35;;;;;;;8.27;4.20;;;;;;;6.95;31.96;97237.75;5072142;28;20052;-79
2022/03/01 10:52:08;;;;;;;10.13;4.83;;;;;;;7.01;32.07;97237.31;5088777;28;20038;-81
2022/03/01 10:54:37;;;;;;;7.55;3.85;;;;;;;6.62;32.04;97231.41;5098098;28;20510;-80
2022/03/01 10:57:11;;;;;;;10.20;4.63;;;;;;;6.93;32.71;97227.38;5100278;28;20036;-80
2022/03/01 10:59:40;;;;;;;10.70;5.13;;;;;;;6.47;32.56;97228.13;5101220;28;20481;-80
2022/03/01 11:02:06;;;;;;;9.63;4.87;;;;;;;7.15;31.71;97226.66;5100545;28;20036;-80
2022/03/01 11:04:33;;;;;;;10.80;5.57;;;;;;;6.29;31.65;97219.78;5099503;28;20038;-80
2022/03/01 11:07:01;;;;;;;8.27;4.60;;;;;;;6.20;33.09;97214.38;5097372;28;20036;-81
2022/03/01 11:09:29;;;;;;;7.93;4.70;;;;;;;6.86;32.80;97213.09;5074688;28;20036;-80
2022/03/01 11:11:57;;;;;;;9.30;5.00;;;;;;;7.79;32.96;97208.72;5077535;28;20030;-80
2022/03/01 11:14:50;;;;;;;9.60;4.73;;;;;;;7.46;33.53;97209.50;5097038;28;20118;-81
2022/03/01 11:17:40;;;;;;;10.83;5.37;;;;;;;8.15;34.84;97205.94;5092824;28;20032;-82
2022/03/01 11:20:14;;;;;;;8.40;5.40;;;;;;;9.04;34.21;97197.06;5087724;28;20066;-77
2022/03/01 11:22:58;;;;;;;12.10;5.53;;;;;;;8.11;35.25;97207.97;5104443;28;20036;-80
2022/03/01 11:25:27;;;;;;;11.07;5.03;;;;;;;8.74;34.87;97195.97;5090874;28;20051;-80
2022/03/01 11:28:00;;;;;;;12.73;6.03;;;;;;;8.12;34.87;97200.97;5071993;28;20035;-80
2022/03/01 11:30:34;;;;;;;10.32;5.57;;;;;;;7.77;34.30;97205.34;5091168;28;20036;-80